Time;durP1;ratioP1;P1;durP2;ratioP2;P2;SDS_P1;SDS_P2;PMS_P1;PMS_P2;Temp;Humidity;BMP_temperature;BMP_pressure;BME280_temperature;BME280_humidity;BME280_pressure;Samples;Min_cycle;Max_cycle;Signal;HPM_P1;HPM_P2
2023/12/10 00:00:55;;;;;;;27.55;4.82;;;;;;;;;;5007080;28;20037;-61
2023/12/10 00:03:21;;;;;;;24.65;4.70;;;;;;;;;;5006263;28;20033;-60
2023/12/10 00:05:47;;;;;;;28.85;5.85;;;;;;;;;;5006159;28;21765;-60
2023/12/10 00:08:14;;;;;;;27.17;4.82;;;;;;;;;;5006282;28;20044;-60
2023/12/10 00:10:40;;;;;;;30.90;5.20;;;;;;;;;;5005653;28;20579;-60
2023/12/10 00:13:06;;;;;;;24.30;4.70;;;;;;;;;;5006605;28;20025;-61
2023/12/10 00:15:32;;;;;;;24.95;3.60;;;;;;;;;;5005551;28;20576;-60
2023/12/10 00:17:58;;;;;;;25.60;4.80;;;;;;;;;;5005921;28;20073;-60
2023/12/10 00:20:25;;;;;;;29.85;4.53;;;;;;;;;;5001903;28;20037;-61
2023/12/10 00:22:51;;;;;;;39.47;5.68;;;;;;;;;;4994301;28;20049;-60
2023/12/10 00:25:17;;;;;;;31.05;5.32;;;;;;;;;;4998804;28;20033;-60
2023/12/10 00:27:43;;;;;;;25.25;4.28;;;;;;;;;;4997958;28;20034;-60
2023/12/10 00:30:10;;;;;;;40.00;6.28;;;;;;;;;;4998758;28;20756;-61
2023/12/10 00:32:36;;;;;;;30.30;4.97;;;;;;;;;;4998651;28;20022;-60
2023/12/10 00:35:03;;;;;;;28.67;5.00;;;;;;;;;;4998302;28;20037;-60
2023/12/10 00:37:29;;;;;;;34.28;6.25;;;;;;;;;;4998730;28;20487;-60
2023/12/10 00:39:55;;;;;;;28.50;4.47;;;;;;;;;;4999315;28;20037;-61
2023/12/10 00:42:21;;;;;;;33.10;5.10;;;;;;;;;;4997511;28;20026;-60
2023/12/10 00:44:47;;;;;;;27.80;4.70;;;;;;;;;;4997869;28;20041;-60
2023/12/10 00:47:14;;;;;;;31.10;5.05;;;;;;;;;;4998266;28;20041;-60
2023/12/10 00:49:40;;;;;;;21.25;4.70;;;;;;;;;;4997353;28;20548;-60
2023/12/10 00:52:06;;;;;;;28.00;5.47;;;;;;;;;;4998482;28;20830;-60
2023/12/10 00:54:33;;;;;;;38.40;5.20;;;;;;;;;;5000663;28;20159;-60
2023/12/10 00:56:59;;;;;;;26.05;4.40;;;;;;;;;;5001575;28;20121;-60
2023/12/10 00:59:26;;;;;;;20.50;4.72;;;;;;;;;;5003193;28;20508;-60
2023/12/10 01:01:52;;;;;;;15.90;3.58;;;;;;;;;;5002604;28;20038;-60
2023/12/10 01:04:18;;;;;;;32.97;4.50;;;;;;;;;;5003136;28;21311;-60
2023/12/10 01:06:45;;;;;;;26.05;3.95;;;;;;;;;;5002289;28;20037;-60
2023/12/10 01:09:15;;;;;;;22.70;4.22;;;;;;;;;;5003103;28;20026;-60
2023/12/10 01:11:41;;;;;;;26.98;4.93;;;;;;;;;;5000936;28;20030;-60
2023/12/10 01:14:07;;;;;;;24.38;4.32;;;;;;;;;;5001498;28;20053;-60
2023/12/10 01:16:33;;;;;;;26.42;4.38;;;;;;;;;;5001860;28;20080;-60
2023/12/10 01:18:59;;;;;;;25.85;4.50;;;;;;;;;;5001622;28;20022;-60
2023/12/10 01:21:25;;;;;;;21.05;3.70;;;;;;;;;;5004250;28;21771;-60
2023/12/10 01:23:54;;;;;;;30.23;4.50;;;;;;;;;;5008911;28;21146;-60
2023/12/10 01:26:21;;;;;;;23.00;3.25;;;;;;;;;;5008880;28;20746;-60
2023/12/10 01:28:47;;;;;;;20.48;3.90;;;;;;;;;;5008439;28;20033;-60
2023/12/10 01:31:13;;;;;;;30.40;4.75;;;;;;;;;;5008585;28;20040;-61
2023/12/10 01:33:39;;;;;;;25.92;4.78;;;;;;;;;;5007741;28;20076;-60
2023/12/10 01:36:05;;;;;;;22.38;3.72;;;;;;;;;;5007880;28;20057;-60
2023/12/10 01:38:31;;;;;;;21.10;4.10;;;;;;;;;;5008375;28;20037;-60
2023/12/10 01:40:58;;;;;;;31.60;4.55;;;;;;;;;;5020985;28;20413;-60
2023/12/10 01:43:24;;;;;;;27.05;4.50;;;;;;;;;;5008578;28;20171;-60
2023/12/10 01:45:54;;;;;;;33.15;5.20;;;;;;;;;;5008628;28;20053;-60
2023/12/10 01:48:21;;;;;;;24.83;3.92;;;;;;;;;;5008203;28;20050;-61
2023/12/10 01:50:48;;;;;;;27.83;4.90;;;;;;;;;;5008074;28;20025;-60
2023/12/10 01:53:15;;;;;;;27.38;5.10;;;;;;;;;;5008184;28;20021;-60
2023/12/10 01:55:42;;;;;;;29.02;5.15;;;;;;;;;;5008512;28;20456;-60
2023/12/10 01:58:09;;;;;;;29.73;4.72;;;;;;;;;;5008714;28;20553;-60
2023/12/10 02:00:35;;;;;;;27.63;5.10;;;;;;;;;;5008260;28;20064;-60
2023/12/10 02:03:02;;;;;;;29.27;4.82;;;;;;;;;;5008323;28;20021;-60
2023/12/10 02:05:29;;;;;;;36.53;4.97;;;;;;;;;;5007629;28;20033;-60
2023/12/10 02:07:55;;;;;;;26.08;5.47;;;;;;;;;;5008239;28;20129;-61
2023/12/10 02:10:21;;;;;;;21.63;4.25;;;;;;;;;;5008044;28;20042;-60
2023/12/10 02:12:48;;;;;;;23.75;4.18;;;;;;;;;;5007978;28;20029;-60
2023/12/10 02:15:15;;;;;;;26.52;4.10;;;;;;;;;;5008402;28;20025;-60
2023/12/10 02:17:41;;;;;;;24.27;4.30;;;;;;;;;;5011300;28;20084;-60
2023/12/10 02:20:10;;;;;;;20.23;3.92;;;;;;;;;;5008066;28;20041;-60
2023/12/10 02:22:40;;;;;;;24.20;4.60;;;;;;;;;;5008294;28;20448;-61
2023/12/10 02:25:08;;;;;;;20.45;4.28;;;;;;;;;;5006538;28;20385;-61
2023/12/10 02:27:34;;;;;;;27.40;4.65;;;;;;;;;;5007903;28;20030;-61
2023/12/10 02:30:00;;;;;;;23.05;4.43;;;;;;;;;;5008083;28;20037;-60
2023/12/10 02:32:26;;;;;;;26.30;4.05;;;;;;;;;;5008702;28;20033;-60
2023/12/10 02:34:52;;;;;;;29.70;5.63;;;;;;;;;;5008224;28;20125;-61
2023/12/10 02:37:18;;;;;;;19.25;3.85;;;;;;;;;;5008678;28;20030;-61
2023/12/10 02:39:45;;;;;;;24.63;4.60;;;;;;;;;;5008222;28;20030;-60
2023/12/10 02:42:11;;;;;;;26.02;4.03;;;;;;;;;;5007803;28;20040;-61
2023/12/10 02:44:37;;;;;;;25.25;3.97;;;;;;;;;;5008178;28;20060;-61
2023/12/10 02:47:03;;;;;;;26.25;4.03;;;;;;;;;;5006920;28;20381;-61
2023/12/10 02:49:29;;;;;;;32.35;5.10;;;;;;;;;;5007345;28;20157;-60
2023/12/10 02:51:55;;;;;;;22.35;4.57;;;;;;;;;;5006081;28;20072;-60
2023/12/10 02:54:21;;;;;;;24.27;4.60;;;;;;;;;;5007751;28;21889;-61
2023/12/10 02:56:47;;;;;;;22.15;4.03;;;;;;;;;;5006011;28;20033;-61
2023/12/10 02:59:13;;;;;;;22.73;4.35;;;;;;;;;;5007764;28;20481;-60
2023/12/10 03:01:39;;;;;;;22.58;4.05;;;;;;;;;;5006776;28;20543;-60
2023/12/10 03:04:05;;;;;;;20.20;3.28;;;;;;;;;;5007399;28;20033;-60
2023/12/10 03:06:31;;;;;;;23.02;3.50;;;;;;;;;;5007821;28;20040;-60
2023/12/10 03:08:57;;;;;;;18.58;3.53;;;;;;;;;;5007258;28;20038;-61
2023/12/10 03:11:23;;;;;;;23.20;4.38;;;;;;;;;;5007812;28;20047;-61
2023/12/10 03:13:49;;;;;;;28.17;5.78;;;;;;;;;;5006554;28;20137;-60
2023/12/10 03:16:16;;;;;;;27.95;5.18;;;;;;;;;;5006684;28;20036;-61
2023/12/10 03:18:42;;;;;;;19.33;3.78;;;;;;;;;;5007314;28;20119;-61
2023/12/10 03:21:08;;;;;;;26.98;4.85;;;;;;;;;;5007242;28;20045;-60
2023/12/10 03:23:34;;;;;;;21.83;4.30;;;;;;;;;;5007244;28;20033;-61
2023/12/10 03:26:00;;;;;;;18.67;3.05;;;;;;;;;;5006604;28;20116;-61
2023/12/10 03:28:26;;;;;;;18.65;3.47;;;;;;;;;;5006677;28;20021;-61
2023/12/10 03:30:52;;;;;;;23.58;6.10;;;;;;;;;;5006678;28;21754;-60
2023/12/10 03:33:18;;;;;;;18.13;3.05;;;;;;;;;;5007457;28;20144;-61
2023/12/10 03:35:44;;;;;;;21.80;3.17;;;;;;;;;;5010604;28;20029;-61
2023/12/10 03:38:10;;;;;;;18.55;3.30;;;;;;;;;;5006544;28;20076;-61
2023/12/10 03:40:36;;;;;;;20.52;3.38;;;;;;;;;;5006992;28;20559;-60
2023/12/10 03:43:02;;;;;;;20.00;2.90;;;;;;;;;;5006890;28;20448;-60
2023/12/10 03:45:28;;;;;;;13.63;2.40;;;;;;;;;;5005886;28;20095;-61
2023/12/10 03:47:54;;;;;;;18.13;2.67;;;;;;;;;;5006867;28;20040;-61
2023/12/10 03:50:20;;;;;;;15.68;2.05;;;;;;;;;;5006534;28;20030;-61
2023/12/10 03:52:46;;;;;;;13.40;2.05;;;;;;;;;;5006888;28;20029;-60
2023/12/10 03:55:12;;;;;;;13.85;2.22;;;;;;;;;;5007034;28;20033;-61
2023/12/10 03:57:38;;;;;;;9.27;2.00;;;;;;;;;;5007196;28;20508;-61
2023/12/10 04:00:05;;;;;;;15.32;2.10;;;;;;;;;;5006443;28;20683;-60
2023/12/10 04:02:31;;;;;;;9.23;1.50;;;;;;;;;;5006285;28;20057;-60
2023/12/10 04:04:57;;;;;;;9.80;1.80;;;;;;;;;;5006225;28;20032;-60
2023/12/10 04:07:25;;;;;;;10.95;1.75;;;;;;;;;;5005969;28;20044;-60
2023/12/10 04:09:51;;;;;;;8.10;1.60;;;;;;;;;;5005480;28;20029;-60
2023/12/10 04:12:17;;;;;;;11.80;1.63;;;;;;;;;;5006809;28;21270;-60
2023/12/10 04:14:47;;;;;;;8.15;1.63;;;;;;;;;;5006327;28;20060;-60
2023/12/10 04:17:13;;;;;;;12.10;2.42;;;;;;;;;;5005536;28;20557;-60
2023/12/10 04:19:39;;;;;;;10.10;1.70;;;;;;;;;;5006932;28;20104;-60
2023/12/10 04:22:05;;;;;;;14.73;2.20;;;;;;;;;;5006362;28;20034;-60
2023/12/10 04:24:31;;;;;;;13.57;2.45;;;;;;;;;;5006661;28;20038;-60
2023/12/10 04:26:57;;;;;;;18.83;2.53;;;;;;;;;;5006317;28;20037;-60
2023/12/10 04:29:23;;;;;;;14.60;2.40;;;;;;;;;;5006226;28;20805;-60
2023/12/10 04:31:49;;;;;;;10.23;2.13;;;;;;;;;;5006365;28;21290;-60
2023/12/10 04:34:15;;;;;;;16.77;2.58;;;;;;;;;;5005320;28;20026;-60
2023/12/10 04:36:41;;;;;;;13.45;2.15;;;;;;;;;;5006301;28;20083;-60
2023/12/10 04:39:08;;;;;;;13.25;2.42;;;;;;;;;;5005953;28;20042;-60
2023/12/10 04:41:34;;;;;;;19.80;2.72;;;;;;;;;;5006706;28;20999;-60
2023/12/10 04:44:01;;;;;;;27.13;2.50;;;;;;;;;;5006493;28;20038;-60
2023/12/10 04:46:28;;;;;;;14.63;3.20;;;;;;;;;;5005629;28;20041;-60
2023/12/10 04:48:54;;;;;;;16.50;2.97;;;;;;;;;;5005491;28;20079;-60
2023/12/10 04:51:21;;;;;;;17.80;2.65;;;;;;;;;;5005848;28;20038;-60
2023/12/10 04:53:47;;;;;;;13.35;2.33;;;;;;;;;;5006850;28;20063;-60
2023/12/10 04:56:14;;;;;;;18.98;2.60;;;;;;;;;;5021396;28;20033;-60
2023/12/10 04:58:40;;;;;;;15.77;2.65;;;;;;;;;;5006310;28;20034;-60
2023/12/10 05:01:07;;;;;;;19.02;3.00;;;;;;;;;;5006191;28;20037;-60
2023/12/10 05:03:33;;;;;;;18.00;3.55;;;;;;;;;;5005547;28;20081;-60
2023/12/10 05:05:59;;;;;;;15.43;2.50;;;;;;;;;;5005563;28;20045;-60
2023/12/10 05:08:25;;;;;;;25.77;3.60;;;;;;;;;;5006059;28;20034;-60
2023/12/10 05:10:52;;;;;;;16.20;2.63;;;;;;;;;;5005841;28;20871;-60
2023/12/10 05:13:18;;;;;;;20.35;3.08;;;;;;;;;;5006439;28;20056;-60
2023/12/10 05:15:44;;;;;;;17.90;3.65;;;;;;;;;;5006100;28;20167;-60
2023/12/10 05:18:10;;;;;;;14.38;2.30;;;;;;;;;;5005714;28;20030;-60
2023/12/10 05:20:36;;;;;;;10.90;2.50;;;;;;;;;;5004941;28;20115;-60
2023/12/10 05:23:02;;;;;;;15.27;1.80;;;;;;;;;;5005552;28;20061;-60
2023/12/10 05:25:29;;;;;;;13.48;2.13;;;;;;;;;;5006051;28;20072;-60
2023/12/10 05:27:56;;;;;;;16.98;2.47;;;;;;;;;;5005477;28;20079;-60
2023/12/10 05:30:22;;;;;;;15.55;2.28;;;;;;;;;;5006003;28;20045;-60
2023/12/10 05:32:48;;;;;;;10.70;1.90;;;;;;;;;;5005913;28;20080;-60
2023/12/10 05:35:14;;;;;;;14.80;1.63;;;;;;;;;;5005566;28;20030;-60
2023/12/10 05:37:40;;;;;;;12.55;1.63;;;;;;;;;;5005046;28;20116;-60
2023/12/10 05:40:06;;;;;;;15.23;1.92;;;;;;;;;;5005429;28;20033;-60
2023/12/10 05:42:32;;;;;;;11.07;1.50;;;;;;;;;;5009256;28;20034;-60
2023/12/10 05:44:59;;;;;;;8.93;1.75;;;;;;;;;;5009277;28;20429;-60
2023/12/10 05:47:25;;;;;;;11.02;2.53;;;;;;;;;;5009402;28;20025;-60
2023/12/10 05:49:51;;;;;;;8.63;1.30;;;;;;;;;;5009412;28;20058;-60
2023/12/10 05:52:17;;;;;;;10.43;1.25;;;;;;;;;;5008819;28;20036;-60
2023/12/10 05:54:43;;;;;;;8.82;1.60;;;;;;;;;;5009000;28;20017;-60
2023/12/10 05:57:09;;;;;;;8.05;2.15;;;;;;;;;;5009522;28;20045;-60
2023/12/10 05:59:36;;;;;;;9.82;1.52;;;;;;;;;;5008982;28;20038;-60
2023/12/10 06:02:02;;;;;;;9.18;1.30;;;;;;;;;;5009071;28;20033;-60
2023/12/10 06:04:28;;;;;;;11.05;2.00;;;;;;;;;;5009267;28;20066;-60
2023/12/10 06:06:55;;;;;;;15.32;2.20;;;;;;;;;;5009103;28;20030;-60
2023/12/10 06:09:21;;;;;;;13.18;2.13;;;;;;;;;;5007617;28;20048;-60
2023/12/10 06:11:47;;;;;;;11.18;1.67;;;;;;;;;;5008866;28;20083;-60
2023/12/10 06:14:13;;;;;;;13.55;2.00;;;;;;;;;;5009166;28;20400;-60
2023/12/10 06:16:39;;;;;;;15.10;2.03;;;;;;;;;;5008701;28;20072;-61
2023/12/10 06:19:05;;;;;;;12.93;2.45;;;;;;;;;;5008336;28;20117;-60
2023/12/10 06:21:32;;;;;;;12.52;2.40;;;;;;;;;;5008822;28;20060;-60
2023/12/10 06:23:58;;;;;;;16.58;2.63;;;;;;;;;;5006824;28;20029;-60
2023/12/10 06:26:24;;;;;;;12.35;1.85;;;;;;;;;;5008262;28;20960;-60
2023/12/10 06:28:50;;;;;;;18.00;2.83;;;;;;;;;;5008676;28;20684;-60
2023/12/10 06:31:16;;;;;;;15.07;2.83;;;;;;;;;;5008984;28;20110;-60
2023/12/10 06:33:43;;;;;;;23.02;2.63;;;;;;;;;;5008530;28;20057;-60
2023/12/10 06:36:09;;;;;;;17.33;2.92;;;;;;;;;;5008056;28;20041;-60
2023/12/10 06:38:36;;;;;;;22.00;3.70;;;;;;;;;;5008067;28;20071;-60
2023/12/10 06:41:02;;;;;;;17.55;2.75;;;;;;;;;;5007167;28;20029;-60
2023/12/10 06:43:28;;;;;;;17.98;4.05;;;;;;;;;;5004578;28;20030;-60
2023/12/10 06:45:59;;;;;;;23.50;2.78;;;;;;;;;;5008027;28;20781;-60
2023/12/10 06:48:25;;;;;;;13.88;2.83;;;;;;;;;;5008260;28;20108;-60
2023/12/10 06:50:51;;;;;;;12.10;2.30;;;;;;;;;;5008270;28;20061;-60
2023/12/10 06:53:17;;;;;;;19.13;2.75;;;;;;;;;;5008165;28;20946;-60
2023/12/10 06:55:44;;;;;;;25.38;3.45;;;;;;;;;;5008393;28;20061;-60
2023/12/10 06:58:10;;;;;;;16.05;2.63;;;;;;;;;;5007829;28;20212;-60
2023/12/10 07:00:36;;;;;;;17.52;3.17;;;;;;;;;;5008234;28;20032;-60
2023/12/10 07:03:02;;;;;;;12.60;2.53;;;;;;;;;;5008303;28;20788;-60
2023/12/10 07:05:28;;;;;;;21.33;3.13;;;;;;;;;;5007792;28;20116;-60
2023/12/10 07:07:54;;;;;;;17.45;3.17;;;;;;;;;;5008047;28;20412;-60
2023/12/10 07:10:20;;;;;;;15.75;2.17;;;;;;;;;;5007076;28;20026;-60
2023/12/10 07:12:47;;;;;;;15.02;2.70;;;;;;;;;;5007155;28;20021;-60
2023/12/10 07:15:13;;;;;;;16.92;2.53;;;;;;;;;;5007824;28;20108;-60
2023/12/10 07:17:39;;;;;;;16.58;2.08;;;;;;;;;;5007644;28;20021;-60
2023/12/10 07:20:09;;;;;;;11.80;2.13;;;;;;;;;;5007646;28;20555;-60
2023/12/10 07:22:35;;;;;;;13.30;2.28;;;;;;;;;;5007546;28;20056;-60
2023/12/10 07:25:04;;;;;;;14.48;1.92;;;;;;;;;;5007554;28;20033;-60
2023/12/10 07:27:31;;;;;;;15.70;2.15;;;;;;;;;;5007276;28;20022;-60
2023/12/10 07:29:57;;;;;;;14.73;1.80;;;;;;;;;;5006987;28;21746;-60
2023/12/10 07:32:23;;;;;;;8.48;1.77;;;;;;;;;;5007380;28;20033;-60
2023/12/10 07:34:49;;;;;;;15.35;1.70;;;;;;;;;;5007352;28;20060;-60
2023/12/10 07:37:16;;;;;;;12.73;1.75;;;;;;;;;;5007661;28;20080;-60
2023/12/10 07:39:42;;;;;;;15.07;1.75;;;;;;;;;;5006782;28;20037;-60
2023/12/10 07:42:08;;;;;;;12.13;1.98;;;;;;;;;;5006471;28;20151;-60
2023/12/10 07:44:35;;;;;;;13.43;1.88;;;;;;;;;;5005855;28;20152;-60
2023/12/10 07:47:02;;;;;;;15.48;1.67;;;;;;;;;;5008066;28;20124;-60
2023/12/10 07:49:29;;;;;;;8.10;1.83;;;;;;;;;;5006973;28;20068;-60
2023/12/10 07:51:55;;;;;;;13.60;2.00;;;;;;;;;;5007379;28;20021;-60
2023/12/10 07:54:21;;;;;;;10.43;1.70;;;;;;;;;;5006896;28;20045;-60
2023/12/10 07:56:47;;;;;;;19.50;2.40;;;;;;;;;;5007267;28;20025;-60
2023/12/10 07:59:13;;;;;;;16.52;2.17;;;;;;;;;;5007580;28;20033;-60
2023/12/10 08:01:40;;;;;;;15.43;2.70;;;;;;;;;;5006041;28;20042;-60
2023/12/10 08:04:06;;;;;;;11.25;2.30;;;;;;;;;;5007056;28;20025;-60
2023/12/10 08:06:33;;;;;;;11.65;2.00;;;;;;;;;;5006886;28;20481;-60
2023/12/10 08:09:04;;;;;;;8.02;1.30;;;;;;;;;;5005164;28;20065;-60
2023/12/10 08:11:30;;;;;;;8.82;1.65;;;;;;;;;;5006411;28;20108;-61
2023/12/10 08:13:56;;;;;;;7.78;1.50;;;;;;;;;;5006234;28;20037;-60
2023/12/10 08:16:23;;;;;;;8.82;1.50;;;;;;;;;;5006742;28;21061;-60
2023/12/10 08:18:50;;;;;;;9.45;1.73;;;;;;;;;;5006048;28;20044;-60
2023/12/10 08:21:16;;;;;;;9.88;1.33;;;;;;;;;;5006024;28;21611;-60
2023/12/10 08:23:42;;;;;;;12.95;1.85;;;;;;;;;;5006956;28;20545;-60
2023/12/10 08:26:08;;;;;;;16.13;2.58;;;;;;;;;;5006142;28;21045;-60
2023/12/10 08:28:34;;;;;;;16.77;2.33;;;;;;;;;;5005470;28;20060;-60
2023/12/10 08:31:01;;;;;;;17.58;2.95;;;;;;;;;;5006309;28;20030;-60
2023/12/10 08:33:27;;;;;;;13.07;2.42;;;;;;;;;;5005912;28;20282;-60
2023/12/10 08:35:53;;;;;;;13.85;2.10;;;;;;;;;;5006584;28;20079;-60
2023/12/10 08:38:19;;;;;;;17.38;2.75;;;;;;;;;;5005368;28;20038;-61
2023/12/10 08:40:45;;;;;;;20.42;2.22;;;;;;;;;;5005369;28;20115;-61
2023/12/10 08:43:11;;;;;;;15.63;1.95;;;;;;;;;;5005318;28;21747;-60
2023/12/10 08:45:37;;;;;;;14.48;2.28;;;;;;;;;;5005716;28;20053;-60
2023/12/10 08:48:03;;;;;;;12.50;1.85;;;;;;;;;;5005654;28;20045;-61
2023/12/10 08:50:29;;;;;;;15.20;2.78;;;;;;;;;;5005560;28;20030;-60
2023/12/10 08:52:55;;;;;;;19.98;3.50;;;;;;;;;;5006652;28;20132;-61
2023/12/10 08:55:21;;;;;;;19.63;3.25;;;;;;;;;;5005758;28;20025;-61
2023/12/10 08:57:48;;;;;;;18.65;3.20;;;;;;;;;;5004813;28;20038;-61
2023/12/10 09:00:14;;;;;;;22.15;3.33;;;;;;;;;;5006429;28;20025;-60
2023/12/10 09:02:41;;;;;;;24.48;4.05;;;;;;;;;;5005027;28;20036;-60
2023/12/10 09:05:07;;;;;;;30.50;4.13;;;;;;;;;;5005487;28;20056;-61
2023/12/10 09:07:33;;;;;;;22.38;4.38;;;;;;;;;;5005570;28;20026;-60
2023/12/10 09:09:59;;;;;;;30.58;5.60;;;;;;;;;;5005096;28;20030;-60
2023/12/10 09:12:29;;;;;;;22.95;4.32;;;;;;;;;;5004795;28;20034;-60
2023/12/10 09:14:56;;;;;;;19.98;3.10;;;;;;;;;;5022547;28;20067;-60
2023/12/10 09:17:22;;;;;;;24.50;3.78;;;;;;;;;;5009541;28;20108;-61
2023/12/10 09:19:48;;;;;;;21.58;2.55;;;;;;;;;;5009177;28;20033;-61
2023/12/10 09:22:14;;;;;;;25.52;4.38;;;;;;;;;;5008691;28;20033;-61
2023/12/10 09:24:40;;;;;;;21.70;3.40;;;;;;;;;;5009422;28;20033;-60
2023/12/10 09:27:07;;;;;;;15.95;2.50;;;;;;;;;;5009404;28;20072;-60
2023/12/10 09:29:38;;;;;;;25.23;3.33;;;;;;;;;;5009824;28;20120;-60
2023/12/10 09:32:05;;;;;;;18.60;2.80;;;;;;;;;;5009084;28;20041;-60
2023/12/10 09:34:31;;;;;;;22.63;3.25;;;;;;;;;;5009979;28;20040;-61
2023/12/10 09:36:58;;;;;;;21.25;2.67;;;;;;;;;;5008107;28;20866;-61
2023/12/10 09:39:24;;;;;;;16.67;2.58;;;;;;;;;;5009339;28;20042;-60
2023/12/10 09:41:50;;;;;;;12.85;2.10;;;;;;;;;;5009318;28;20033;-60
2023/12/10 09:44:16;;;;;;;22.63;3.33;;;;;;;;;;5008778;28;20100;-61
2023/12/10 09:46:42;;;;;;;15.35;2.30;;;;;;;;;;5008778;28;20052;-60
2023/12/10 09:49:09;;;;;;;18.85;2.40;;;;;;;;;;5009087;28;20048;-61
2023/12/10 09:51:35;;;;;;;18.65;3.03;;;;;;;;;;5008642;28;21074;-60
2023/12/10 09:54:01;;;;;;;16.48;2.67;;;;;;;;;;5008295;28;20083;-60
2023/12/10 09:56:27;;;;;;;21.15;3.03;;;;;;;;;;5008652;28;20120;-60
2023/12/10 09:58:53;;;;;;;22.58;2.95;;;;;;;;;;5007046;28;20061;-60
2023/12/10 10:01:19;;;;;;;22.88;2.75;;;;;;;;;;5008715;28;20037;-60
2023/12/10 10:03:45;;;;;;;21.58;3.17;;;;;;;;;;5009028;28;20037;-60
2023/12/10 10:06:11;;;;;;;19.63;4.72;;;;;;;;;;5008949;28;20029;-60
2023/12/10 10:08:37;;;;;;;22.88;4.35;;;;;;;;;;5008714;28;20037;-60
2023/12/10 10:11:03;;;;;;;21.48;3.10;;;;;;;;;;5008096;28;20478;-61
2023/12/10 10:13:30;;;;;;;17.70;2.67;;;;;;;;;;5008406;28;21010;-61
2023/12/10 10:15:56;;;;;;;17.60;3.45;;;;;;;;;;5006896;28;20028;-61
2023/12/10 10:18:22;;;;;;;23.98;4.25;;;;;;;;;;5007600;28;20490;-61
2023/12/10 10:20:49;;;;;;;25.30;3.00;;;;;;;;;;4999499;28;20123;-60
2023/12/10 10:23:15;;;;;;;21.00;3.53;;;;;;;;;;4998653;28;20040;-60
2023/12/10 10:25:41;;;;;;;22.08;3.30;;;;;;;;;;4999002;28;20029;-60
2023/12/10 10:28:10;;;;;;;25.98;3.55;;;;;;;;;;4999360;28;20030;-60
2023/12/10 10:30:37;;;;;;;22.00;4.20;;;;;;;;;;5000174;28;20026;-60
2023/12/10 10:33:03;;;;;;;31.92;4.97;;;;;;;;;;4999399;28;20029;-60
2023/12/10 10:35:29;;;;;;;21.35;3.67;;;;;;;;;;4999083;28;20461;-60
2023/12/10 10:37:55;;;;;;;24.00;4.75;;;;;;;;;;4998155;28;20076;-61
2023/12/10 10:40:22;;;;;;;23.77;4.60;;;;;;;;;;4996580;28;20098;-61
2023/12/10 10:42:48;;;;;;;30.77;4.30;;;;;;;;;;4998364;28;20056;-60
2023/12/10 10:45:14;;;;;;;32.63;4.85;;;;;;;;;;5003180;28;20045;-60
2023/12/10 10:47:40;;;;;;;26.92;4.68;;;;;;;;;;5003470;28;20143;-61
2023/12/10 10:50:07;;;;;;;27.48;4.47;;;;;;;;;;5004806;28;20285;-60
2023/12/10 10:52:34;;;;;;;32.25;4.38;;;;;;;;;;5007309;28;20025;-61
2023/12/10 10:55:02;;;;;;;35.97;5.72;;;;;;;;;;5019333;28;20034;-60
2023/12/10 10:57:29;;;;;;;38.65;5.55;;;;;;;;;;4997891;28;20033;-61
2023/12/10 10:59:55;;;;;;;22.58;4.88;;;;;;;;;;4998997;28;20037;-61
2023/12/10 11:02:21;;;;;;;27.85;5.20;;;;;;;;;;4998433;28;20937;-61
2023/12/10 11:04:49;;;;;;;24.50;4.47;;;;;;;;;;4998369;28;21288;-60
2023/12/10 11:07:15;;;;;;;40.58;5.95;;;;;;;;;;4999302;28;20053;-60
2023/12/10 11:10:02;;;;;;;39.78;5.88;;;;;;;;;;5004597;28;20980;-60
2023/12/10 11:12:48;;;;;;;29.73;4.40;;;;;;;;;;5003911;28;20699;-60
2023/12/10 11:15:14;;;;;;;24.08;4.60;;;;;;;;;;5005549;28;20109;-60
2023/12/10 11:18:09;;;;;;;33.67;5.03;;;;;;;;;;5000067;28;20129;-60
2023/12/10 11:20:43;;;;;;;27.92;4.47;;;;;;;;;;4990224;28;20042;-61
2023/12/10 11:23:13;;;;;;;30.05;4.82;;;;;;;;;;4999362;28;20030;-60
2023/12/10 11:25:40;;;;;;;27.98;6.03;;;;;;;;;;4999474;28;20045;-60
2023/12/10 11:28:10;;;;;;;35.75;5.90;;;;;;;;;;5002799;28;20079;-61
2023/12/10 11:30:37;;;;;;;31.88;5.93;;;;;;;;;;4995907;28;20103;-60
2023/12/10 11:33:05;;;;;;;25.45;5.78;;;;;;;;;;4996620;28;20117;-60
2023/12/10 11:35:31;;;;;;;29.63;5.68;;;;;;;;;;4996832;28;20037;-60
2023/12/10 11:37:57;;;;;;;29.50;5.03;;;;;;;;;;4996486;28;20552;-61
2023/12/10 11:40:24;;;;;;;40.40;5.68;;;;;;;;;;4996689;28;20039;-60
2023/12/10 11:42:50;;;;;;;26.63;5.70;;;;;;;;;;4996834;28;20045;-60
2023/12/10 11:45:16;;;;;;;27.52;5.53;;;;;;;;;;4997486;28;20056;-60
2023/12/10 11:47:43;;;;;;;27.90;5.05;;;;;;;;;;4997249;28;20052;-60
2023/12/10 11:50:09;;;;;;;39.38;5.68;;;;;;;;;;4998192;28;20071;-60
2023/12/10 11:52:35;;;;;;;25.13;4.88;;;;;;;;;;4998416;28;20038;-61
2023/12/10 11:55:02;;;;;;;28.95;5.40;;;;;;;;;;4997606;28;20076;-60
2023/12/10 11:57:28;;;;;;;30.20;5.53;;;;;;;;;;4998374;28;20042;-61
2023/12/10 11:59:54;;;;;;;33.33;5.43;;;;;;;;;;4998194;28;20033;-61
2023/12/10 12:02:20;;;;;;;33.60;5.55;;;;;;;;;;4996967;28;20036;-60
2023/12/10 12:04:46;;;;;;;32.35;5.40;;;;;;;;;;4997311;28;20290;-60
2023/12/10 12:07:25;;;;;;;38.58;5.15;;;;;;;;;;4997017;28;20104;-61
2023/12/10 12:09:54;;;;;;;27.33;4.63;;;;;;;;;;4996734;28;20416;-60
2023/12/10 12:12:23;;;;;;;36.67;5.88;;;;;;;;;;4997150;28;20061;-60
2023/12/10 12:14:51;;;;;;;26.00;4.82;;;;;;;;;;4999506;28;20148;-60
2023/12/10 12:17:19;;;;;;;33.25;4.70;;;;;;;;;;4997075;28;20033;-60
2023/12/10 12:19:45;;;;;;;30.30;5.40;;;;;;;;;;4997819;28;20044;-61
2023/12/10 12:22:11;;;;;;;30.80;5.03;;;;;;;;;;4997900;28;20754;-60
2023/12/10 12:24:39;;;;;;;29.40;4.75;;;;;;;;;;4997377;28;20045;-61
2023/12/10 12:27:06;;;;;;;40.90;6.93;;;;;;;;;;4997785;28;20032;-60
2023/12/10 12:29:32;;;;;;;31.20;5.47;;;;;;;;;;4996788;28;20033;-61
2023/12/10 12:31:59;;;;;;;31.00;5.32;;;;;;;;;;4994867;28;20034;-60
2023/12/10 12:34:26;;;;;;;29.92;5.85;;;;;;;;;;4995625;28;20065;-61
2023/12/10 12:36:52;;;;;;;43.13;8.27;;;;;;;;;;4996793;28;20585;-60
2023/12/10 12:39:18;;;;;;;35.55;6.05;;;;;;;;;;4996949;28;20038;-60
2023/12/10 12:41:46;;;;;;;37.22;5.32;;;;;;;;;;4997004;28;20037;-61
2023/12/10 12:44:13;;;;;;;25.50;4.65;;;;;;;;;;4998214;28;20038;-61
2023/12/10 12:46:40;;;;;;;30.13;4.78;;;;;;;;;;4996339;28;20104;-60
2023/12/10 12:49:06;;;;;;;26.20;4.80;;;;;;;;;;5000928;28;20068;-60
2023/12/10 12:51:32;;;;;;;28.20;5.05;;;;;;;;;;5004848;28;20057;-60
2023/12/10 12:53:59;;;;;;;30.35;4.93;;;;;;;;;;5019889;28;20036;-61
2023/12/10 12:56:25;;;;;;;28.58;5.00;;;;;;;;;;5003563;28;20103;-60
2023/12/10 12:58:52;;;;;;;30.83;5.25;;;;;;;;;;5001213;28;20061;-60
2023/12/10 13:01:18;;;;;;;29.17;5.10;;;;;;;;;;5004126;28;20471;-60
2023/12/10 13:03:45;;;;;;;32.03;4.60;;;;;;;;;;5003535;28;20037;-61
2023/12/10 13:06:11;;;;;;;27.48;4.18;;;;;;;;;;5005951;28;21507;-61
2023/12/10 13:08:37;;;;;;;30.80;4.75;;;;;;;;;;5002425;28;20041;-60
2023/12/10 13:11:03;;;;;;;24.63;5.72;;;;;;;;;;5005594;28;20415;-60
2023/12/10 13:13:29;;;;;;;34.13;5.35;;;;;;;;;;5007593;28;20160;-61
2023/12/10 13:15:57;;;;;;;28.00;4.90;;;;;;;;;;5011783;28;20032;-61
2023/12/10 13:18:23;;;;;;;24.27;4.50;;;;;;;;;;5011810;28;20037;-61
2023/12/10 13:20:49;;;;;;;21.88;4.35;;;;;;;;;;5011180;28;20043;-60
2023/12/10 13:23:15;;;;;;;20.45;3.60;;;;;;;;;;5011320;28;20038;-60
2023/12/10 13:25:41;;;;;;;26.55;4.05;;;;;;;;;;5011414;28;20048;-61
2023/12/10 13:28:09;;;;;;;26.98;4.25;;;;;;;;;;5011801;28;20401;-60
2023/12/10 13:30:35;;;;;;;26.15;4.72;;;;;;;;;;5010920;28;20108;-61
2023/12/10 13:33:02;;;;;;;21.38;3.83;;;;;;;;;;5010728;28;20029;-61
2023/12/10 13:35:28;;;;;;;31.63;5.32;;;;;;;;;;5010678;28;20546;-60
2023/12/10 13:37:54;;;;;;;23.27;4.55;;;;;;;;;;5010360;28;20104;-61
2023/12/10 13:40:21;;;;;;;21.05;4.32;;;;;;;;;;5010904;28;20060;-61
2023/12/10 13:42:47;;;;;;;26.88;3.83;;;;;;;;;;5010267;28;20718;-60
2023/12/10 13:45:13;;;;;;;23.17;4.22;;;;;;;;;;5011349;28;20033;-60
2023/12/10 13:47:40;;;;;;;21.00;3.92;;;;;;;;;;5011648;28;20065;-60
2023/12/10 13:50:06;;;;;;;23.52;4.43;;;;;;;;;;5011238;28;20033;-61
2023/12/10 13:52:32;;;;;;;20.10;4.05;;;;;;;;;;5011055;28;20104;-61
2023/12/10 13:54:58;;;;;;;20.63;3.67;;;;;;;;;;5010927;28;20034;-61
2023/12/10 13:57:26;;;;;;;23.80;4.20;;;;;;;;;;5012080;28;20065;-61
2023/12/10 13:59:52;;;;;;;20.70;3.25;;;;;;;;;;5010724;28;20826;-61
2023/12/10 14:02:19;;;;;;;18.38;3.08;;;;;;;;;;5009613;28;20026;-61
2023/12/10 14:04:45;;;;;;;23.52;4.22;;;;;;;;;;5009841;28;20265;-61
2023/12/10 14:07:11;;;;;;;16.45;2.90;;;;;;;;;;5009196;28;20088;-61
2023/12/10 14:09:37;;;;;;;17.35;3.22;;;;;;;;;;5008137;28;20036;-60
2023/12/10 14:12:03;;;;;;;16.08;2.95;;;;;;;;;;5021368;28;20652;-61
2023/12/10 14:14:30;;;;;;;19.15;2.70;;;;;;;;;;5007284;28;20045;-60
2023/12/10 14:16:56;;;;;;;16.15;3.70;;;;;;;;;;5008485;28;20603;-61
2023/12/10 14:19:22;;;;;;;27.50;3.47;;;;;;;;;;5009105;28;20124;-61
2023/12/10 14:21:48;;;;;;;19.95;3.95;;;;;;;;;;5008523;28;20030;-60
2023/12/10 14:24:14;;;;;;;16.73;2.72;;;;;;;;;;5004237;28;20526;-60
2023/12/10 14:26:40;;;;;;;16.15;2.88;;;;;;;;;;5008656;28;20757;-60